Time;durP1;ratioP1;P1;durP2;ratioP2;P2;SDS_P1;SDS_P2;PMS_P1;PMS_P2;Temp;Humidity;BMP_temperature;BMP_pressure;BME280_temperature;BME280_humidity;BME280_pressure;Samples;Min_cycle;Max_cycle;Signal;HPM_P1;HPM_P2
2023/02/21 02:15:49;;;;;;;0.50;0.50;;;;;;;6.84;100.00;101031.19;4956519;29;20493;-95
2023/02/21 02:19:05;;;;;;;1.90;0.68;;;;;;;6.82;100.00;101025.25;4954382;29;20031;-95
2023/02/21 02:21:49;;;;;;;2.13;0.70;;;;;;;6.83;100.00;101014.13;4911079;29;20039;-94
2023/02/21 02:24:51;;;;;;;0.77;0.57;;;;;;;6.54;100.00;100978.31;4955628;28;20086;-94
2023/02/21 02:27:54;;;;;;;2.25;0.50;;;;;;;6.83;100.00;101006.44;4954563;29;20047;-95
2023/02/21 02:30:27;;;;;;;0.63;0.52;;;;;;;6.85;100.00;101011.50;4955155;29;20090;-94
2023/02/21 02:33:20;;;;;;;0.55;0.30;;;;;;;6.80;100.00;101003.13;4951479;29;20028;-94
2023/02/21 02:36:10;;;;;;;0.82;0.30;;;;;;;6.76;100.00;100973.34;4941623;29;20023;-94
2023/02/21 02:38:48;;;;;;;2.47;0.40;;;;;;;6.77;100.00;100980.97;4955704;29;20446;-95
2023/02/21 02:41:31;;;;;;;1.35;1.00;;;;;;;6.89;100.00;100989.16;4949016;29;20438;-94
2023/02/21 02:44:24;;;;;;;1.27;0.77;;;;;;;6.83;100.00;100990.22;4951302;28;20087;-94
2023/02/21 02:46:52;;;;;;;1.50;0.50;;;;;;;6.80;100.00;100985.16;4946042;29;20489;-95
2023/02/21 02:49:24;;;;;;;0.82;0.60;;;;;;;6.71;100.00;100965.78;4954158;29;20035;-94
2023/02/21 02:51:52;;;;;;;4.72;0.80;;;;;;;6.72;100.00;100957.19;4953028;28;20508;-94
2023/02/21 02:54:17;;;;;;;1.83;0.98;;;;;;;6.72;100.00;100952.06;4970361;28;20117;-95
2023/02/21 02:56:45;;;;;;;1.25;0.70;;;;;;;6.78;100.00;100977.53;4941195;29;20546;-94
2023/02/21 02:59:16;;;;;;;2.40;0.65;;;;;;;6.72;100.00;100964.88;4954264;29;20034;-95
2023/02/21 03:01:48;;;;;;;1.23;0.82;;;;;;;6.91;100.00;100982.25;4954042;28;20038;-95
2023/02/21 03:04:13;;;;;;;;;;;;;;;6.88;100.00;100983.19;4954349;29;20490;-94
2023/02/21 03:07:11;;;;;;;1.13;0.50;;;;;;;6.85;100.00;100979.00;4953381;29;19925;-94
2023/02/21 03:10:06;;;;;;;2.95;1.00;;;;;;;6.83;100.00;100975.66;4969109;28;20086;-94
2023/02/21 03:12:31;;;;;;;1.88;0.60;;;;;;;6.96;100.00;100975.22;4943148;29;20043;-94
2023/02/21 03:15:16;;;;;;;2.67;0.60;;;;;;;6.93;100.00;100971.03;4949995;28;20039;-94
2023/02/21 03:17:48;;;;;;;3.17;0.80;;;;;;;6.92;100.00;100973.66;4950623;29;20035;-96
2023/02/21 03:20:15;;;;;;;0.93;0.57;;;;;;;6.71;100.00;100945.28;4943907;28;20038;-95
2023/02/21 03:22:43;;;;;;;1.88;0.65;;;;;;;6.83;100.00;100960.25;4949051;29;20035;-95
2023/02/21 03:25:10;;;;;;;0.77;0.70;;;;;;;6.96;100.00;100970.09;4943159;29;20019;-94
2023/02/21 03:27:38;;;;;;;1.08;0.82;;;;;;;6.81;100.00;100936.38;4950376;29;20130;-95
2023/02/21 03:30:06;;;;;;;2.42;0.55;;;;;;;6.85;100.00;100931.97;4942272;29;20397;-94
2023/02/21 03:32:36;;;;;;;1.73;0.90;;;;;;;6.81;100.00;100928.66;4953583;29;20059;-95
2023/02/21 03:35:02;;;;;;;1.50;0.65;;;;;;;6.99;100.00;100949.47;4969654;28;20086;-94
2023/02/21 03:37:29;;;;;;;2.35;0.73;;;;;;;6.90;100.00;100945.50;4949628;29;20390;-94
2023/02/21 03:39:55;;;;;;;1.00;0.70;;;;;;;6.84;100.00;100925.16;4950391;29;20035;-95
2023/02/21 03:42:21;;;;;;;1.35;0.68;;;;;;;6.76;100.00;100912.59;4955893;28;20035;-95
2023/02/21 03:44:47;;;;;;;1.00;0.50;;;;;;;6.77;100.00;100918.56;4953532;29;20044;-94
2023/02/21 03:47:12;;;;;;;2.78;0.80;;;;;;;6.67;100.00;100912.91;4950211;29;20024;-94
2023/02/21 03:49:37;;;;;;;2.42;0.80;;;;;;;6.84;100.00;100920.88;4934668;29;20039;-94
2023/02/21 03:52:03;;;;;;;1.42;0.60;;;;;;;6.93;100.00;100921.47;4961712;28;20429;-94
2023/02/21 03:54:29;;;;;;;2.15;0.68;;;;;;;6.86;100.00;100911.38;4953079;29;20024;-95
2023/02/21 03:56:54;;;;;;;1.17;0.65;;;;;;;6.91;100.00;100925.78;4953611;29;20039;-95
2023/02/21 03:59:20;;;;;;;2.92;0.70;;;;;;;6.87;100.00;100935.31;4949906;29;20118;-95
2023/02/21 04:01:45;;;;;;;2.60;0.82;;;;;;;6.81;100.00;100905.56;4943002;29;20090;-94
2023/02/21 04:04:11;;;;;;;1.83;0.70;;;;;;;6.84;100.00;100913.16;4953190;29;20029;-94
2023/02/21 04:06:36;;;;;;;1.35;0.90;;;;;;;6.80;100.00;100909.06;4951687;29;20028;-94
2023/02/21 04:09:02;;;;;;;1.88;0.77;;;;;;;6.84;100.00;100920.03;4949827;29;20474;-94
2023/02/21 04:11:28;;;;;;;2.63;0.75;;;;;;;6.60;100.00;100886.63;4948931;29;20065;-95
2023/02/21 04:13:53;;;;;;;1.20;0.90;;;;;;;6.98;100.00;100906.72;4952841;29;20197;-94
2023/02/21 04:16:19;;;;;;;0.88;0.80;;;;;;;6.81;100.00;100904.75;4949589;29;20578;-95
2023/02/21 04:18:44;;;;;;;0.63;0.60;;;;;;;6.67;100.00;100881.28;4934873;29;20032;-94
2023/02/21 04:21:10;;;;;;;0.80;0.80;;;;;;;6.93;100.00;100908.63;4935000;29;20482;-95
2023/02/21 04:23:35;;;;;;;1.05;0.75;;;;;;;6.96;100.00;100913.66;4965042;28;20130;-95
2023/02/21 04:26:01;;;;;;;1.08;0.70;;;;;;;6.92;100.00;100902.63;4937733;29;20020;-95
2023/02/21 04:28:26;;;;;;;0.85;0.70;;;;;;;6.92;100.00;100883.84;4948676;29;20032;-94
2023/02/21 04:30:52;;;;;;;0.88;0.80;;;;;;;6.90;100.00;100903.56;4946278;29;20032;-93
2023/02/21 04:33:17;;;;;;;2.28;1.02;;;;;;;6.87;100.00;100889.13;4953744;29;20043;-94
2023/02/21 04:35:43;;;;;;;1.80;0.80;;;;;;;6.98;100.00;100892.16;4942667;29;20023;-94
2023/02/21 04:38:08;;;;;;;2.50;1.08;;;;;;;7.07;100.00;100902.13;4956817;29;20508;-95
2023/02/21 04:40:34;;;;;;;0.57;0.55;;;;;;;6.98;100.00;100888.78;4953620;29;20035;-94
2023/02/21 04:42:59;;;;;;;1.45;0.73;;;;;;;6.89;100.00;100868.56;4952296;29;20079;-95
2023/02/21 04:45:25;;;;;;;1.90;1.25;;;;;;;6.95;100.00;100868.31;4956731;29;20023;-95
2023/02/21 04:47:50;;;;;;;0.98;0.88;;;;;;;7.12;100.00;100893.38;4953584;29;20518;-93
2023/02/21 04:50:16;;;;;;;1.60;1.08;;;;;;;6.95;100.00;100873.47;4951340;29;20484;-94
2023/02/21 04:52:41;;;;;;;1.85;1.27;;;;;;;6.88;100.00;100878.00;4956428;29;20035;-95
2023/02/21 04:55:08;;;;;;;3.10;1.20;;;;;;;6.93;100.00;100885.53;4956804;29;20023;-95
2023/02/21 04:57:33;;;;;;;1.67;1.30;;;;;;;6.94;100.00;100884.63;4956249;29;20035;-94
2023/02/21 05:00:00;;;;;;;2.28;1.60;;;;;;;6.76;100.00;100876.69;4956824;29;20031;-94
2023/02/21 05:02:26;;;;;;;2.28;1.60;;;;;;;6.85;100.00;100870.38;4954334;28;20020;-94
2023/02/21 05:04:52;;;;;;;1.45;1.33;;;;;;;6.83;100.00;100867.88;4956472;28;20042;-95
2023/02/21 05:07:17;;;;;;;1.55;1.40;;;;;;;6.84;100.00;100866.97;4952984;28;20027;-94
2023/02/21 05:09:43;;;;;;;1.70;1.55;;;;;;;6.94;100.00;100874.38;4948086;28;20042;-95
2023/02/21 05:12:10;;;;;;;4.03;1.42;;;;;;;6.76;100.00;100860.47;4956098;28;20065;-94
2023/02/21 05:14:39;;;;;;;2.15;1.73;;;;;;;6.90;100.00;100886.47;4953093;28;20023;-95
2023/02/21 05:17:06;;;;;;;2.45;1.67;;;;;;;6.75;100.00;100880.13;4952166;29;20027;-94
2023/02/21 05:19:31;;;;;;;2.60;2.30;;;;;;;6.78;100.00;100880.03;4937457;29;20031;-94
2023/02/21 05:22:00;;;;;;;2.17;1.90;;;;;;;6.60;100.00;100865.25;4946751;29;20497;-94
2023/02/21 05:24:28;;;;;;;3.20;1.65;;;;;;;6.75;100.00;100857.03;4954286;29;20070;-95
2023/02/21 05:26:54;;;;;;;3.55;2.05;;;;;;;6.77;100.00;100851.84;4955755;28;20097;-93
2023/02/21 05:29:19;;;;;;;3.53;1.83;;;;;;;6.76;100.00;100851.03;4956169;29;20043;-94
2023/02/21 05:31:46;;;;;;;2.83;2.05;;;;;;;6.60;100.00;100844.75;4953184;29;20032;-95
2023/02/21 05:34:12;;;;;;;2.25;1.70;;;;;;;6.62;100.00;100841.25;4936924;29;20042;-95
2023/02/21 05:36:38;;;;;;;3.25;1.98;;;;;;;6.64;100.00;100842.03;4944457;28;20023;-95
2023/02/21 05:39:05;;;;;;;3.28;2.42;;;;;;;6.81;100.00;100854.28;4949299;28;20034;-95
2023/02/21 05:41:30;;;;;;;2.55;2.10;;;;;;;6.77;100.00;100859.56;4936564;29;20482;-94
2023/02/21 05:43:56;;;;;;;2.58;2.30;;;;;;;6.72;100.00;100854.59;4945028;28;20034;-94
2023/02/21 05:46:27;;;;;;;3.33;1.90;;;;;;;6.88;100.00;100864.31;4952264;28;20469;-95
2023/02/21 05:48:54;;;;;;;3.80;1.98;;;;;;;6.64;100.00;100838.63;4945768;29;20127;-95
2023/02/21 05:51:20;;;;;;;3.78;2.65;;;;;;;6.71;100.00;100846.97;4954840;29;20035;-94
2023/02/21 05:53:45;;;;;;;4.28;2.10;;;;;;;6.74;100.00;100857.94;4952264;28;20371;-93
2023/02/21 05:56:11;;;;;;;3.92;2.17;;;;;;;6.57;100.00;100834.59;4946180;29;20114;-94
2023/02/21 05:58:37;;;;;;;8.85;2.58;;;;;;;6.69;100.00;100864.13;4971454;28;20039;-96
2023/02/21 06:01:03;;;;;;;5.72;3.10;;;;;;;6.55;100.00;100836.38;4955373;29;20027;-95
2023/02/21 06:03:29;;;;;;;3.90;2.85;;;;;;;6.58;100.00;100833.69;4951574;29;20044;-95
2023/02/21 06:05:54;;;;;;;2.60;1.75;;;;;;;6.79;100.00;100844.94;4953575;29;20055;-94
2023/02/21 06:08:20;;;;;;;5.47;2.00;;;;;;;6.39;100.00;100836.06;4955170;29;20493;-94
2023/02/21 06:10:45;;;;;;;2.53;1.85;;;;;;;6.23;100.00;100833.16;4955369;29;20034;-95
2023/02/21 06:13:11;;;;;;;3.22;2.17;;;;;;;6.49;100.00;100852.00;4954963;29;21696;-95
2023/02/21 06:15:36;;;;;;;3.95;2.25;;;;;;;6.32;100.00;100825.19;4954900;29;20513;-94
2023/02/21 06:18:02;;;;;;;5.45;2.85;;;;;;;6.43;100.00;100835.06;4952051;29;20035;-94
2023/02/21 06:20:27;;;;;;;3.38;2.15;;;;;;;6.39;100.00;100824.09;4954201;29;20027;-95
2023/02/21 06:22:53;;;;;;;2.00;1.80;;;;;;;6.41;100.00;100830.00;4955074;29;20024;-94
2023/02/21 06:25:19;;;;;;;3.25;2.08;;;;;;;6.42;100.00;100847.06;4937602;28;20513;-95
2023/02/21 06:27:44;;;;;;;3.47;2.72;;;;;;;6.41;100.00;100845.41;4951091;29;20068;-94
2023/02/21 06:30:10;;;;;;;2.30;2.00;;;;;;;6.35;100.00;100840.44;4951333;29;20035;-95
2023/02/21 06:32:36;;;;;;;2.92;1.90;;;;;;;6.44;100.00;100839.31;4954779;29;20063;-94
2023/02/21 06:35:03;;;;;;;2.80;1.88;;;;;;;6.46;100.00;100841.81;4969419;28;20542;-95
2023/02/21 06:37:28;;;;;;;2.40;1.88;;;;;;;6.33;100.00;100831.97;4954477;29;20027;-94
2023/02/21 06:39:54;;;;;;;3.05;2.00;;;;;;;6.19;100.00;100835.00;4951153;29;20027;-94
2023/02/21 06:42:21;;;;;;;4.18;2.20;;;;;;;6.39;100.00;100851.47;4966513;28;20516;-95
2023/02/21 06:44:49;;;;;;;3.33;2.70;;;;;;;6.18;100.00;100827.38;4947033;29;20581;-93
2023/02/21 06:47:15;;;;;;;3.03;2.28;;;;;;;6.37;100.00;100836.13;4965385;28;20063;-95
2023/02/21 06:49:41;;;;;;;3.20;2.45;;;;;;;6.26;100.00;100817.69;4946786;29;20050;-95
2023/02/21 06:52:07;;;;;;;4.65;2.38;;;;;;;6.24;100.00;100806.63;4942083;29;20505;-95
2023/02/21 06:54:33;;;;;;;9.23;2.75;;;;;;;6.22;100.00;100816.13;4937448;29;20035;-95
2023/02/21 06:57:00;;;;;;;3.95;2.50;;;;;;;6.34;100.00;100818.28;4950879;29;20490;-94
2023/02/21 06:59:27;;;;;;;7.05;3.00;;;;;;;6.46;100.00;100809.31;4935697;29;20035;-95
2023/02/21 07:01:53;;;;;;;9.40;2.70;;;;;;;6.48;100.00;100824.66;4954185;29;20406;-95
2023/02/21 07:04:18;;;;;;;2.88;1.95;;;;;;;6.39;100.00;100831.78;4953119;28;20042;-94
2023/02/21 07:06:44;;;;;;;3.53;1.98;;;;;;;6.43;100.00;100827.38;4970045;28;20024;-93
2023/02/21 07:09:09;;;;;;;4.18;1.83;;;;;;;6.49;100.00;100808.41;4983319;22;20075;-94
2023/02/21 07:11:35;;;;;;;5.82;2.22;;;;;;;6.26;100.00;100796.34;4973411;28;20065;-94
2023/02/21 07:14:01;;;;;;;3.00;1.75;;;;;;;6.25;100.00;100799.81;4989856;28;20028;-94
2023/02/21 07:16:26;;;;;;;3.10;1.92;;;;;;;6.17;100.00;100825.69;4969791;28;20174;-94
2023/02/21 07:18:53;;;;;;;3.83;1.90;;;;;;;6.20;100.00;100805.09;4960763;28;20050;-94
2023/02/21 07:21:19;;;;;;;3.42;2.08;;;;;;;6.22;100.00;100811.00;4960409;28;20031;-95
2023/02/21 07:23:46;;;;;;;5.50;2.50;;;;;;;6.22;100.00;100816.13;4961111;28;20091;-95
2023/02/21 07:26:13;;;;;;;9.60;2.85;;;;;;;6.11;100.00;100801.09;4973348;28;20034;-94
2023/02/21 07:28:39;;;;;;;3.15;2.35;;;;;;;6.36;100.00;100818.22;4955867;28;20038;-94
2023/02/21 07:31:05;;;;;;;4.90;2.38;;;;;;;6.15;100.00;100792.41;4969690;28;20107;-95
2023/02/21 07:33:30;;;;;;;10.70;4.00;;;;;;;6.18;100.00;100786.34;4959138;28;20046;-94
2023/02/21 07:35:56;;;;;;;6.82;2.50;;;;;;;6.30;100.00;100803.06;4953648;28;20027;-94
2023/02/21 07:38:24;;;;;;;5.80;2.67;;;;;;;6.39;100.00;100789.94;4954615;28;20078;-95
2023/02/21 07:40:52;;;;;;;4.88;2.45;;;;;;;6.37;100.00;100797.66;4969459;28;20478;-95
2023/02/21 07:43:18;;;;;;;19.42;3.22;;;;;;;6.22;100.00;100785.38;4953605;28;20121;-96
2023/02/21 07:45:44;;;;;;;35.20;3.78;;;;;;;6.30;100.00;100806.44;4957171;28;20427;-96
2023/02/21 07:48:13;;;;;;;8.95;2.38;;;;;;;6.33;100.00;100798.66;4959146;28;20039;-95
2023/02/21 07:50:42;;;;;;;8.55;2.20;;;;;;;6.23;100.00;100802.41;4971812;28;20455;-94
2023/02/21 07:53:08;;;;;;;4.97;2.42;;;;;;;6.27;100.00;100806.56;4969110;28;20027;-95
2023/02/21 07:55:33;;;;;;;4.10;2.35;;;;;;;6.32;100.00;100814.94;4960395;28;20085;-94
2023/02/21 07:57:59;;;;;;;2.63;1.80;;;;;;;6.38;100.00;100813.88;4972966;28;20039;-95
2023/02/21 08:00:25;;;;;;;4.07;2.20;;;;;;;6.45;100.00;100811.94;4962685;28;20075;-94
2023/02/21 08:02:50;;;;;;;9.75;2.47;;;;;;;6.45;100.00;100817.06;4965285;28;20118;-95
2023/02/21 08:05:17;;;;;;;8.77;2.72;;;;;;;6.55;100.00;100818.44;4964331;28;20027;-95
2023/02/21 08:07:43;;;;;;;9.68;1.98;;;;;;;6.53;100.00;100804.81;4966685;28;20130;-95
2023/02/21 08:10:10;;;;;;;3.97;1.88;;;;;;;6.48;100.00;100799.00;4965671;28;20114;-95
2023/02/21 08:12:35;;;;;;;5.60;3.92;;;;;;;6.47;100.00;100828.13;4953738;28;20035;-95
2023/02/21 08:15:01;;;;;;;5.43;3.20;;;;;;;6.60;100.00;100844.75;4953590;28;20625;-94
2023/02/21 08:17:26;;;;;;;13.85;1.55;;;;;;;6.44;100.00;100826.50;4961883;28;20031;-95
2023/02/21 08:19:52;;;;;;;6.03;1.73;;;;;;;6.35;100.00;100827.63;4963809;28;20481;-95
2023/02/21 08:22:18;;;;;;;7.25;2.30;;;;;;;6.48;100.00;100850.28;4963815;28;20537;-94
2023/02/21 08:24:45;;;;;;;1.55;1.10;;;;;;;6.47;100.00;100862.28;4966583;28;20768;-95
2023/02/21 08:27:10;;;;;;;3.88;1.73;;;;;;;6.32;100.00;100861.06;4970717;28;20573;-95
2023/02/21 08:29:36;;;;;;;2.17;1.15;;;;;;;6.22;100.00;100839.19;4960187;28;20145;-94
2023/02/21 08:32:01;;;;;;;2.28;1.42;;;;;;;6.49;100.00;100852.81;4955908;28;20596;-94
2023/02/21 08:34:28;;;;;;;2.30;1.45;;;;;;;6.66;100.00;100839.41;4966154;28;20031;-93
2023/02/21 08:36:54;;;;;;;2.65;1.60;;;;;;;6.56;100.00;100827.78;4966452;28;20490;-94
2023/02/21 08:39:20;;;;;;;3.67;2.25;;;;;;;6.74;100.00;100827.16;4962561;28;20045;-94
2023/02/21 08:41:51;;;;;;;2.40;1.63;;;;;;;7.06;100.00;100832.84;4968646;28;20031;-95
2023/02/21 08:44:17;;;;;;;2.33;1.52;;;;;;;7.58;100.00;100856.56;4970517;28;20031;-95
2023/02/21 08:46:43;;;;;;;2.33;1.63;;;;;;;7.68;100.00;100854.50;4976539;28;20028;-95
2023/02/21 08:49:09;;;;;;;2.80;1.50;;;;;;;7.49;100.00;100821.00;4955024;28;20046;-94
2023/02/21 08:51:35;;;;;;;2.60;1.70;;;;;;;7.89;100.00;100827.13;4956175;28;20027;-93
2023/02/21 08:54:01;;;;;;;2.95;2.13;;;;;;;7.79;100.00;100818.13;4973326;28;20097;-94
2023/02/21 08:56:27;;;;;;;2.00;1.52;;;;;;;7.65;100.00;100819.47;4968578;28;20031;-94
2023/02/21 08:58:55;;;;;;;2.75;1.50;;;;;;;7.70;100.00;100809.03;4969811;28;20090;-95
2023/02/21 09:01:23;;;;;;;1.60;1.30;;;;;;;7.83;100.00;100788.84;4965857;28;20086;-94
2023/02/21 09:03:51;;;;;;;1.42;1.30;;;;;;;8.04;100.00;100821.34;4966170;28;20115;-96
2023/02/21 09:06:17;;;;;;;1.48;1.15;;;;;;;8.20;100.00;100798.44;4951603;28;20145;-94
2023/02/21 09:08:42;;;;;;;1.48;1.35;;;;;;;8.53;100.00;100806.50;4952231;28;20039;-94
2023/02/21 09:11:08;;;;;;;1.55;1.33;;;;;;;8.25;100.00;100813.69;4957890;28;20030;-95
2023/02/21 09:13:33;;;;;;;1.38;1.05;;;;;;;8.07;100.00;100813.53;4953812;28;20027;-95
2023/02/21 09:16:01;;;;;;;2.78;1.63;;;;;;;8.13;100.00;100807.31;4956754;28;20027;-94
2023/02/21 09:18:27;;;;;;;1.40;1.15;;;;;;;8.09;100.00;100824.56;4956485;28;20512;-92
2023/02/21 09:20:56;;;;;;;2.35;1.85;;;;;;;7.86;100.00;100815.25;4966701;28;20028;-94
2023/02/21 09:23:24;;;;;;;2.42;1.77;;;;;;;7.64;100.00;100804.16;4956198;28;20035;-95
2023/02/21 09:25:51;;;;;;;2.78;1.50;;;;;;;7.83;100.00;100788.84;4962808;28;20077;-96
2023/02/21 09:28:18;;;;;;;2.33;1.80;;;;;;;8.12;100.00;100827.03;4957267;28;20359;-95
2023/02/21 09:30:43;;;;;;;2.17;1.63;;;;;;;7.96;100.00;100805.41;4956385;28;20044;-96
2023/02/21 09:33:10;;;;;;;2.30;1.52;;;;;;;8.00;100.00;100794.13;4960875;28;20027;-95
2023/02/21 09:35:35;;;;;;;2.60;1.77;;;;;;;7.93;100.00;100785.00;4957034;28;20031;-95
2023/02/21 09:38:01;;;;;;;2.03;1.50;;;;;;;7.87;100.00;100805.78;4967021;28;20039;-95
2023/02/21 09:40:47;;;;;;;2.47;1.70;;;;;;;7.89;100.00;100775.72;4970402;28;20031;-96
2023/02/21 09:43:42;;;;;;;2.25;1.70;;;;;;;7.93;100.00;100795.28;4972449;28;20034;-96
2023/02/21 09:46:16;;;;;;;2.67;2.00;;;;;;;7.87;100.00;100790.38;4965675;28;20152;-96
2023/02/21 09:48:43;;;;;;;2.30;1.60;;;;;;;7.93;100.00;100800.41;4974680;28;20488;-96
2023/02/21 09:51:10;;;;;;;2.22;1.52;;;;;;;8.19;100.00;100798.50;4975157;28;20438;-96
2023/02/21 09:53:40;;;;;;;2.72;1.80;;;;;;;8.42;100.00;100815.56;4983591;28;20027;-93
2023/02/21 09:56:12;;;;;;;2.45;1.52;;;;;;;8.32;100.00;100804.81;4960048;28;20062;-93
2023/02/21 09:58:43;;;;;;;2.53;1.85;;;;;;;8.14;100.00;100784.13;4956466;28;20028;-93
2023/02/21 10:01:36;;;;;;;2.00;1.63;;;;;;;8.08;100.00;100798.94;4974136;28;20019;-94
2023/02/21 10:04:13;;;;;;;2.15;1.42;;;;;;;8.46;100.00;100799.94;4960158;28;20520;-93
2023/02/21 10:06:53;;;;;;;2.60;1.50;;;;;;;8.61;100.00;100793.31;4955451;28;20486;-94
2023/02/21 10:09:42;;;;;;;2.17;1.75;;;;;;;8.66;100.00;100803.41;4968015;28;20039;-95
2023/02/21 10:12:29;;;;;;;2.42;2.03;;;;;;;8.55;100.00;100775.53;4963296;28;20031;-94
2023/02/21 10:15:19;;;;;;;2.85;2.08;;;;;;;8.57;100.00;100769.44;4966207;28;20390;-94
2023/02/21 10:18:07;;;;;;;2.83;2.25;;;;;;;8.53;100.00;100779.91;4971145;28;20079;-92
2023/02/21 10:20:48;;;;;;;3.75;2.40;;;;;;;8.26;100.00;100787.06;4967373;28;20035;-93
2023/02/21 10:23:23;;;;;;;3.37;2.37;;;;;;;8.09;100.00;100770.59;4958963;28;20461;-94
2023/02/21 10:25:54;;;;;;;4.10;2.40;;;;;;;8.23;100.00;100777.72;4962757;28;20034;-94
2023/02/21 10:28:23;;;;;;;3.78;2.35;;;;;;;8.24;100.00;100783.69;4973917;28;20035;-93
2023/02/21 10:30:54;;;;;;;6.05;2.60;;;;;;;8.26;100.00;100759.59;4971729;28;20023;-94
2023/02/21 10:33:19;;;;;;;3.63;2.55;;;;;;;8.36;100.00;100754.88;4968665;28;20019;-93
2023/02/21 10:35:45;;;;;;;4.18;3.17;;;;;;;8.73;100.00;100761.88;4979095;28;20083;-94
2023/02/21 10:38:15;;;;;;;4.28;2.63;;;;;;;8.05;100.00;100748.50;4955003;28;20086;-92
2023/02/21 10:40:43;;;;;;;3.80;2.92;;;;;;;8.34;100.00;100772.16;4972026;28;20069;-94
2023/02/21 10:43:30;;;;;;;6.13;3.40;;;;;;;8.76;100.00;100764.31;4974402;28;20054;-94
2023/02/21 10:46:26;;;;;;;6.68;3.42;;;;;;;9.06;100.00;100768.16;4973961;28;20149;-95
2023/02/21 10:48:58;;;;;;;6.72;3.92;;;;;;;8.92;100.00;100754.16;4973312;28;20117;-94
2023/02/21 10:51:32;;;;;;;4.90;4.00;;;;;;;8.96;100.00;100742.81;4957337;28;20023;-94
2023/02/21 10:54:24;;;;;;;5.55;3.88;;;;;;;8.99;100.00;100747.81;4956014;28;20027;-94
2023/02/21 10:56:52;;;;;;;7.55;3.92;;;;;;;8.63;100.00;100731.47;4954159;28;20056;-94
2023/02/21 10:59:29;;;;;;;7.28;4.47;;;;;;;8.70;100.00;100745.72;4981629;28;20043;-94
2023/02/21 11:01:56;;;;;;;6.63;4.35;;;;;;;8.72;100.00;100719.03;4964082;28;20030;-95
2023/02/21 11:04:33;;;;;;;6.25;4.43;;;;;;;8.75;100.00;100729.19;4960157;28;20508;-95
2023/02/21 11:07:04;;;;;;;6.35;4.60;;;;;;;8.51;100.00;100728.56;4972413;28;20094;-94
2023/02/21 11:09:37;;;;;;;6.55;4.63;;;;;;;9.02;100.00;100761.47;4962661;28;20118;-94
2023/02/21 11:12:19;;;;;;;6.00;5.05;;;;;;;8.93;99.19;100748.09;4970716;28;20055;-94
2023/02/21 11:14:50;;;;;;;;;;;;;;;9.30;100.00;100761.84;4966714;28;20141;-95
2023/02/21 11:17:31;;;;;;;6.97;5.20;;;;;;;9.38;99.56;100757.16;4963090;28;19914;-94
2023/02/21 11:20:18;;;;;;;7.78;5.13;;;;;;;9.36;97.11;100725.50;4965241;28;20046;-94
2023/02/21 11:22:46;;;;;;;11.35;6.10;;;;;;;9.23;95.49;100719.25;4972902;28;20022;-93
2023/02/21 11:25:25;;;;;;;8.48;6.10;;;;;;;9.07;96.82;100714.00;4960668;28;20031;-95
2023/02/21 11:28:04;;;;;;;9.75;5.97;;;;;;;9.10;96.70;100713.88;4960788;28;20058;-96
2023/02/21 11:30:47;;;;;;;10.20;7.28;;;;;;;8.98;98.62;100717.84;4963032;28;20290;-95
2023/02/21 11:33:19;;;;;;;9.05;6.53;;;;;;;9.06;98.79;100726.94;4963949;28;20118;-93
2023/02/21 11:35:47;;;;;;;11.05;8.25;;;;;;;9.31;99.31;100742.91;4958916;28;20033;-94
2023/02/21 11:38:36;;;;;;;11.43;7.25;;;;;;;9.14;99.52;100743.69;4956072;28;20039;-95
2023/02/21 11:41:14;;;;;;;10.85;7.55;;;;;;;9.18;98.54;100716.06;4960816;28;20053;-94
2023/02/21 11:43:45;;;;;;;12.65;8.40;;;;;;;9.05;99.52;100715.00;4967738;28;20050;-94
2023/02/21 11:46:27;;;;;;;11.48;7.53;;;;;;;9.16;99.48;100728.19;4964370;28;20038;-95
2023/02/21 11:49:25;;;;;;;13.07;8.82;;;;;;;8.89;100.00;100694.25;4955807;28;20031;-94
2023/02/21 11:52:15;;;;;;;13.20;8.90;;;;;;;9.05;100.00;100720.97;4940985;28;20031;-94
2023/02/21 11:54:42;;;;;;;22.77;10.68;;;;;;;8.96;100.00;100711.91;4953102;28;20071;-93
2023/02/21 11:57:45;;;;;;;21.85;9.57;;;;;;;8.99;100.00;100710.94;4954731;28;20031;-95
2023/02/21 12:00:11;;;;;;;13.80;9.23;;;;;;;8.89;100.00;100710.53;4951626;28;20074;-94
2023/02/21 12:03:26;;;;;;;16.80;11.18;;;;;;;8.68;100.00;100680.63;4954849;28;20545;-92
2023/02/21 12:06:10;;;;;;;18.95;11.35;;;;;;;8.88;100.00;100714.03;4946611;28;20039;-95
2023/02/21 12:08:38;;;;;;;19.50;10.52;;;;;;;8.81;100.00;100722.09;4960979;28;20028;-95
2023/02/21 12:11:06;;;;;;;16.40;10.50;;;;;;;8.73;100.00;100710.41;4962940;28;20122;-95
2023/02/21 12:13:53;;;;;;;18.52;11.38;;;;;;;8.62;100.00;100701.50;4961450;28;20023;-95
2023/02/21 12:16:20;;;;;;;16.17;11.38;;;;;;;8.75;100.00;100700.88;4969717;28;20661;-96
2023/02/21 12:19:01;;;;;;;20.25;12.02;;;;;;;8.63;100.00;100692.88;4960963;28;20122;-95
2023/02/21 12:22:11;;;;;;;15.23;9.20;;;;;;;8.49;100.00;100666.03;4953485;28;20034;-96
2023/02/21 12:24:56;;;;;;;14.25;9.10;;;;;;;8.64;100.00;100684.25;4972735;28;20031;-96
2023/02/21 12:27:40;;;;;;;15.52;9.52;;;;;;;8.97;100.00;100682.72;4962260;28;20385;-94
2023/02/21 12:30:35;;;;;;;13.18;8.85;;;;;;;9.46;100.00;100679.53;4952572;28;20034;-96
2023/02/21 12:33:22;;;;;;;12.18;7.85;;;;;;;9.37;98.81;100673.06;4953195;28;20055;-95
2023/02/21 12:36:05;;;;;;;10.98;7.93;;;;;;;9.51;97.78;100669.84;4953017;28;20507;-96
2023/02/21 12:38:38;;;;;;;10.05;6.53;;;;;;;9.49;96.59;100673.41;4968371;28;20452;-96
2023/02/21 12:41:09;;;;;;;7.90;6.00;;;;;;;9.69;93.52;100665.50;4956435;28;20118;-95
2023/02/21 12:44:10;;;;;;;8.55;5.93;;;;;;;9.57;91.27;100676.41;4965118;28;20027;-96
2023/02/21 12:46:44;;;;;;;9.07;6.57;;;;;;;9.79;90.77;100640.91;4964639;28;20363;-96
2023/02/21 12:49:13;;;;;;;8.60;6.10;;;;;;;9.83;90.43;100654.50;4960186;28;20027;-96
2023/02/21 12:51:45;;;;;;;9.65;6.15;;;;;;;9.84;90.56;100656.97;4970565;28;20035;-96
2023/02/21 12:54:19;;;;;;;7.55;5.28;;;;;;;9.61;93.15;100641.88;4973030;28;20028;-96
2023/02/21 12:56:48;;;;;;;8.70;4.90;;;;;;;9.59;92.23;100643.69;4966276;28;20041;-94
2023/02/21 12:59:38;;;;;;;8.43;5.28;;;;;;;9.65;91.81;100648.50;4966656;28;20031;-96
2023/02/21 13:02:10;;;;;;;8.57;5.65;;;;;;;9.57;96.37;100645.50;4957076;28;20513;-95
2023/02/21 13:04:56;;;;;;;9.38;4.82;;;;;;;9.80;92.60;100640.03;4976572;28;20023;-95
2023/02/21 13:07:44;;;;;;;5.72;4.22;;;;;;;9.84;91.61;100633.78;4972526;28;20493;-94
2023/02/21 13:10:16;;;;;;;5.88;4.28;;;;;;;9.96;89.94;100634.06;4953519;28;20054;-93
2023/02/21 13:13:07;;;;;;;5.90;4.40;;;;;;;9.76;88.81;100599.84;4963618;28;20482;-95
2023/02/21 13:15:34;;;;;;;6.82;4.22;;;;;;;10.17;86.81;100588.25;4964558;28;20112;-96
2023/02/21 13:18:16;;;;;;;6.03;3.45;;;;;;;10.33;84.98;100596.06;4969316;28;20133;-95
2023/02/21 13:20:50;;;;;;;4.93;3.10;;;;;;;10.33;84.45;100599.47;4970684;28;20023;-95
2023/02/21 13:26:41;;;;;;;5.88;4.10;;;;;;;11.96;78.84;100583.25;4961223;28;20093;-94
2023/02/21 13:29:18;;;;;;;5.43;3.97;;;;;;;12.13;73.10;100571.88;4969683;28;20038;-96
2023/02/21 13:31:44;;;;;;;6.28;3.30;;;;;;;12.09;71.07;100572.16;4967871;28;20154;-96
2023/02/21 13:34:17;;;;;;;3.72;2.80;;;;;;;12.27;71.25;100573.63;4960790;28;20453;-96
2023/02/21 13:36:46;;;;;;;4.28;2.95;;;;;;;12.94;68.91;100565.88;4968650;28;20023;-95
2023/02/21 13:39:30;;;;;;;5.03;2.90;;;;;;;12.45;69.05;100555.25;4971527;28;20401;-96
2023/02/21 13:42:18;;;;;;;4.07;3.13;;;;;;;12.64;70.12;100550.56;4955688;28;20028;-96
2023/02/21 13:44:49;;;;;;;3.40;2.60;;;;;;;12.89;70.82;100564.53;4966514;28;20041;-96
2023/02/21 13:47:19;;;;;;;4.43;3.45;;;;;;;13.14;70.17;100568.91;4971904;28;20031;-95
2023/02/21 13:49:49;;;;;;;4.93;3.47;;;;;;;12.61;69.73;100561.13;4958704;28;20042;-96
2023/02/21 13:52:21;;;;;;;4.35;3.00;;;;;;;12.83;67.80;100569.19;4962662;28;20024;-96
2023/02/21 13:55:08;;;;;;;4.57;3.20;;;;;;;12.65;69.60;100570.34;4972841;28;20042;-95
2023/02/21 13:57:39;;;;;;;4.15;3.35;;;;;;;12.79;69.28;100559.94;4968363;28;20027;-95
2023/02/21 14:00:24;;;;;;;3.50;2.80;;;;;;;12.63;69.08;100556.66;4955089;28;20027;-96
2023/02/21 14:02:56;;;;;;;5.82;3.83;;;;;;;12.69;68.41;100534.75;4968711;28;20375;-96